createdAt,value
2018-01-10T00:01:21.079Z,12.14
2018-01-10T00:03:49.100Z,12.20
2018-01-10T00:06:16.653Z,11.02
2018-01-10T00:08:44.187Z,9.77
2018-01-10T00:11:11.744Z,11.90
2018-01-10T00:13:39.280Z,10.70
2018-01-10T00:16:06.809Z,8.23
2018-01-10T00:18:34.367Z,14.23
2018-01-10T00:21:01.955Z,9.43
2018-01-10T00:23:29.504Z,15.63
2018-01-10T00:25:57.384Z,17.87
2018-01-10T00:28:26.476Z,13.10
2018-01-10T00:30:54.003Z,11.47
2018-01-10T00:33:21.559Z,12.13
2018-01-10T00:35:49.087Z,8.63
2018-01-10T00:38:16.620Z,16.13
2018-01-10T00:40:44.181Z,25.73
2018-01-10T00:43:11.718Z,20.10
2018-01-10T00:45:39.247Z,11.47
2018-01-10T00:48:07.392Z,14.80
2018-01-10T00:50:34.924Z,18.53
2018-01-10T00:53:02.446Z,12.90
2018-01-10T00:55:30.010Z,14.23
2018-01-10T00:57:57.557Z,14.17
2018-01-10T01:00:25.089Z,13.50
2018-01-10T01:02:52.649Z,11.90
2018-01-10T01:05:20.185Z,11.73
2018-01-10T01:07:48.482Z,14.63
2018-01-10T01:10:16.744Z,15.00
2018-01-10T01:12:44.271Z,17.17
2018-01-10T01:15:11.807Z,14.00
2018-01-10T01:17:39.359Z,24.63
2018-01-10T01:20:06.895Z,8.63
2018-01-10T01:22:34.434Z,18.67
2018-01-10T01:25:02.768Z,11.47
2018-01-10T01:27:30.303Z,12.97
2018-01-10T01:29:58.547Z,18.50
2018-01-10T01:32:27.087Z,12.33
2018-01-10T01:34:54.615Z,14.33
2018-01-10T01:37:22.156Z,14.00
2018-01-10T01:39:49.712Z,14.63
2018-01-10T01:42:18.012Z,15.37
2018-01-10T01:44:46.312Z,12.50
2018-01-10T01:47:25.325Z,11.18
2018-01-10T01:54:47.920Z,12.87
2018-01-10T01:57:15.588Z,10.87
2018-01-10T01:59:43.128Z,13.70
2018-01-10T02:02:10.681Z,11.33
2018-01-10T02:04:38.216Z,18.93
2018-01-10T02:07:05.742Z,16.03
2018-01-10T02:09:33.303Z,16.80
2018-01-10T02:12:00.880Z,13.23
2018-01-10T02:14:28.420Z,16.65
2018-01-10T02:16:56.580Z,14.30
2018-01-10T02:19:24.108Z,13.48
2018-01-10T02:21:51.638Z,13.07
2018-01-10T02:24:19.191Z,14.30
2018-01-10T02:26:46.723Z,10.47
2018-01-10T02:29:16.272Z,12.07
2018-01-10T02:31:45.119Z,12.77
2018-01-10T02:34:13.571Z,12.10
2018-01-10T02:36:41.104Z,12.23
2018-01-10T02:39:09.221Z,8.43
2018-01-10T02:41:36.939Z,17.30
2018-01-10T02:44:04.479Z,12.57
2018-01-10T02:46:32.031Z,14.05
2018-01-10T02:48:59.560Z,21.70
2018-01-10T02:51:27.099Z,15.30
2018-01-10T02:53:54.653Z,12.20
2018-01-10T02:56:22.192Z,18.58
2018-01-10T02:58:49.723Z,22.10
2018-01-10T03:01:17.735Z,15.50
2018-01-10T03:03:45.267Z,14.23
2018-01-10T03:06:13.714Z,9.60
2018-01-10T03:08:41.296Z,10.90
2018-01-10T03:11:08.824Z,13.43
2018-01-10T03:13:36.360Z,16.70
2018-01-10T03:16:03.915Z,10.43
2018-01-10T03:18:31.459Z,31.80
2018-01-10T03:20:58.999Z,14.40
2018-01-10T03:23:27.144Z,10.17
2018-01-10T03:25:54.673Z,11.53
2018-01-10T03:28:22.203Z,15.10
2018-01-10T03:30:49.764Z,12.37
2018-01-10T03:33:17.843Z,14.83
2018-01-10T03:35:45.375Z,11.87
2018-01-10T03:38:13.851Z,15.60
2018-01-10T03:40:41.379Z,13.10
2018-01-10T03:43:08.903Z,19.73
2018-01-10T03:45:36.675Z,13.50
2018-01-10T03:48:04.215Z,10.90
2018-01-10T03:50:32.515Z,11.37
2018-01-10T03:53:00.075Z,15.37
2018-01-10T03:55:27.619Z,13.33
2018-01-10T03:57:55.151Z,12.50
2018-01-10T04:00:22.712Z,13.77
2018-01-10T04:02:50.255Z,16.83
2018-01-10T04:05:17.790Z,10.77
2018-01-10T04:07:45.682Z,16.07
2018-01-10T04:10:15.459Z,17.77
2018-01-10T04:12:42.997Z,11.97
2018-01-10T04:15:10.568Z,14.23
2018-01-10T04:17:38.099Z,15.03
2018-01-10T04:20:05.631Z,13.50
2018-01-10T04:22:33.187Z,12.82
2018-01-10T04:25:01.483Z,15.37
2018-01-10T04:27:29.014Z,32.53
2018-01-10T04:29:56.838Z,17.30
2018-01-10T04:32:24.377Z,17.23
2018-01-10T04:34:52.347Z,14.20
2018-01-10T04:37:19.915Z,14.70
2018-01-10T04:39:47.458Z,23.25
2018-01-10T04:42:17.287Z,13.52
2018-01-10T04:44:44.872Z,12.60
2018-01-10T04:47:12.407Z,12.63
2018-01-10T04:49:40.711Z,19.00
2018-01-10T04:52:08.755Z,15.57
2018-01-10T04:54:36.287Z,15.77
2018-01-10T04:57:03.823Z,15.40
2018-01-10T04:59:31.379Z,13.20
2018-01-10T05:01:58.914Z,17.93
2018-01-10T05:04:26.450Z,17.10
2018-01-10T05:06:54.010Z,14.20
2018-01-10T05:09:21.552Z,13.93
2018-01-10T05:11:49.087Z,17.43
2018-01-10T05:14:17.218Z,13.47
2018-01-10T05:16:44.757Z,15.00
2018-01-10T05:19:12.291Z,16.33
2018-01-10T05:21:40.614Z,11.83
2018-01-10T05:24:08.917Z,17.53
2018-01-10T05:26:36.455Z,13.73
2018-01-10T05:29:04.015Z,18.70
2018-01-10T05:31:31.554Z,18.97
2018-01-10T05:33:59.134Z,13.13
2018-01-10T05:39:19.815Z,17.92
2018-01-10T05:41:47.380Z,14.73
2018-01-10T05:44:15.604Z,19.50
2018-01-10T05:46:43.138Z,16.40
2018-01-10T05:49:10.694Z,19.63
2018-01-10T05:51:38.224Z,13.27
2018-01-10T05:54:05.763Z,19.53
2018-01-10T05:56:34.320Z,16.17
2018-01-10T05:59:01.855Z,17.10
2018-01-10T06:01:29.406Z,14.55
2018-01-10T06:03:56.970Z,17.90
2018-01-10T06:06:24.511Z,13.50
2018-01-10T06:08:52.064Z,16.33
2018-01-10T06:11:19.636Z,16.73
2018-01-10T06:13:47.173Z,16.53
2018-01-10T06:16:15.503Z,17.80
2018-01-10T06:18:43.688Z,18.60
2018-01-10T06:21:11.295Z,20.87
2018-01-10T06:23:38.867Z,19.03
2018-01-10T06:26:06.443Z,21.67
2018-01-10T06:28:33.984Z,16.20
2018-01-10T06:31:01.698Z,13.60
2018-01-10T06:33:29.293Z,20.20
2018-01-10T06:35:56.979Z,22.70
2018-01-10T06:38:25.348Z,19.73
2018-01-10T06:40:53.267Z,31.23
2018-01-10T06:43:20.991Z,23.53
2018-01-10T06:45:48.596Z,23.40
2018-01-10T06:48:16.637Z,17.98
2018-01-10T06:50:44.167Z,21.77
2018-01-10T06:53:12.938Z,19.70
2018-01-10T06:55:40.564Z,16.77
2018-01-10T06:58:08.101Z,25.93
2018-01-10T07:00:35.648Z,26.20
2018-01-10T07:03:03.760Z,17.90
2018-01-10T07:05:31.300Z,21.90
2018-01-10T07:07:58.860Z,32.10
2018-01-10T07:10:26.493Z,23.25
2018-01-10T07:12:54.035Z,19.53
2018-01-10T07:15:22.356Z,20.70
2018-01-10T07:17:49.928Z,17.17
2018-01-10T07:20:17.506Z,33.38
2018-01-10T07:22:45.108Z,18.47
2018-01-10T07:25:15.152Z,21.77
2018-01-10T07:27:42.700Z,22.93
2018-01-10T07:30:10.264Z,25.03
2018-01-10T07:32:37.831Z,164.43
2018-01-10T07:35:05.496Z,104.03
2018-01-10T07:37:33.048Z,96.82
2018-01-10T07:40:00.663Z,54.93
2018-01-10T07:42:28.279Z,55.20
2018-01-10T07:44:55.864Z,39.23
2018-01-10T07:47:23.664Z,26.33
2018-01-10T07:49:51.218Z,31.03
2018-01-10T07:52:20.384Z,23.27
2018-01-10T07:54:48.648Z,19.97
2018-01-10T07:57:16.431Z,20.43
2018-01-10T07:59:44.767Z,14.80
2018-01-10T08:02:12.368Z,16.87
2018-01-10T08:04:39.936Z,17.20
2018-01-10T08:07:07.653Z,20.20
2018-01-10T08:09:35.839Z,17.03
2018-01-10T08:12:03.396Z,14.23
2018-01-10T08:14:30.952Z,16.67
2018-01-10T08:16:58.546Z,16.10
2018-01-10T08:19:26.843Z,16.37
2018-01-10T08:21:54.417Z,14.70
2018-01-10T08:24:22.079Z,21.60
2018-01-10T08:26:50.387Z,24.33
2018-01-10T08:29:17.932Z,23.67
2018-01-10T08:31:45.567Z,24.48
2018-01-10T08:34:15.488Z,13.13
2018-01-10T08:36:43.023Z,27.30
2018-01-10T08:39:10.813Z,20.30
2018-01-10T08:41:38.974Z,14.33
2018-01-10T08:44:06.512Z,23.83
2018-01-10T08:46:34.318Z,32.30
2018-01-10T08:49:03.524Z,29.90
2018-01-10T08:51:31.099Z,19.85
2018-01-10T08:53:58.748Z,19.13
2018-01-10T08:56:27.289Z,19.97
2018-01-10T08:58:54.842Z,19.07
2018-01-10T09:01:23.275Z,37.42
2018-01-10T09:03:51.108Z,20.13
2018-01-10T09:06:18.660Z,17.97
2018-01-10T09:08:46.999Z,24.53
2018-01-10T09:11:16.295Z,16.45
2018-01-10T09:13:43.963Z,19.03
2018-01-10T09:16:12.007Z,18.50
2018-01-10T09:18:39.578Z,20.43
2018-01-10T09:21:07.168Z,24.40
2018-01-10T09:23:34.743Z,19.80
2018-01-10T09:26:02.304Z,29.93
2018-01-10T09:28:29.916Z,22.50
2018-01-10T09:30:57.488Z,26.83
2018-01-10T09:33:25.028Z,26.93
2018-01-10T09:35:53.335Z,39.77
2018-01-10T09:38:21.100Z,35.43
2018-01-10T09:40:48.640Z,29.63
2018-01-10T09:43:18.024Z,24.00
2018-01-10T09:45:45.597Z,25.60
2018-01-10T09:48:25.040Z,27.98
2018-01-10T09:54:44.243Z,33.97
2018-01-10T09:57:11.793Z,29.40
2018-01-10T09:59:39.331Z,26.47
2018-01-10T10:02:06.891Z,21.90
2018-01-10T10:04:34.444Z,24.67
2018-01-10T10:07:01.992Z,27.03
2018-01-10T10:09:30.326Z,25.23
2018-01-10T10:11:57.867Z,25.63
2018-01-10T10:14:25.408Z,25.70
2018-01-10T10:16:53.540Z,24.37
2018-01-10T10:19:21.204Z,24.33
2018-01-10T10:21:48.748Z,30.70
2018-01-10T10:24:16.563Z,23.83
2018-01-10T10:26:44.123Z,30.40
2018-01-10T10:29:11.666Z,32.00
2018-01-10T10:31:39.963Z,35.17
2018-01-10T10:34:07.503Z,30.10
2018-01-10T10:36:35.044Z,31.50
2018-01-10T10:39:03.612Z,28.00
2018-01-10T10:41:31.176Z,26.12
2018-01-10T10:43:59.182Z,38.43
2018-01-10T10:46:26.756Z,27.10
2018-01-10T10:48:54.295Z,36.33
2018-01-10T10:51:22.601Z,33.22
2018-01-10T10:53:50.178Z,38.33
2018-01-10T10:56:17.721Z,32.30
2018-01-10T10:58:45.251Z,32.90
2018-01-10T11:01:15.122Z,32.70
2018-01-10T11:03:42.655Z,33.47
2018-01-10T11:06:10.183Z,39.87
2018-01-10T11:08:38.511Z,37.07
2018-01-10T11:11:06.052Z,35.47
2018-01-10T11:13:33.590Z,33.13
2018-01-10T11:16:01.927Z,42.73
2018-01-10T11:18:29.471Z,31.52
2018-01-10T11:20:57.231Z,27.70
2018-01-10T11:23:25.314Z,33.13
2018-01-10T11:25:52.854Z,30.13
2018-01-10T11:28:27.219Z,28.95
2018-01-10T11:30:54.789Z,34.10
2018-01-10T11:33:23.105Z,34.78
2018-01-10T11:35:50.694Z,31.00
2018-01-10T11:38:18.328Z,36.47
2018-01-10T11:40:45.868Z,31.13
2018-01-10T11:43:24.714Z,29.87
2018-01-10T11:50:40.240Z,31.13
2018-01-10T11:53:07.787Z,31.90
2018-01-10T11:55:35.322Z,35.17
2018-01-10T11:58:03.179Z,35.27
2018-01-10T12:00:30.715Z,39.07
2018-01-10T12:02:58.247Z,32.23
2018-01-10T12:05:27.316Z,34.03
2018-01-10T12:07:54.842Z,38.30
2018-01-10T12:10:22.412Z,32.33
2018-01-10T12:12:51.123Z,31.50
2018-01-10T12:15:18.662Z,46.00
2018-01-10T12:17:46.654Z,37.97
2018-01-10T12:20:16.435Z,34.40
2018-01-10T12:22:44.421Z,31.13
2018-01-10T12:25:11.960Z,46.50
2018-01-10T12:27:40.343Z,37.38
2018-01-10T12:30:07.884Z,33.80
2018-01-10T12:32:35.424Z,36.97
2018-01-10T12:35:02.992Z,35.57
2018-01-10T12:37:30.528Z,35.63
2018-01-10T12:39:58.063Z,32.70
2018-01-10T12:42:25.631Z,33.87
2018-01-10T12:44:53.176Z,35.50
2018-01-10T12:47:20.725Z,40.22
2018-01-10T12:49:49.105Z,43.33
2018-01-10T12:52:16.984Z,35.70
2018-01-10T12:54:44.532Z,39.47
2018-01-10T12:57:12.100Z,36.80
2018-01-10T12:59:40.404Z,38.10
2018-01-10T13:02:07.943Z,40.17
2018-01-10T13:04:35.533Z,44.00
2018-01-10T13:07:03.076Z,42.73
2018-01-10T13:09:30.607Z,36.87
2018-01-10T13:11:59.457Z,35.70
2018-01-10T13:14:27.020Z,37.03
2018-01-10T13:16:54.555Z,40.00
2018-01-10T13:19:22.128Z,43.63
2018-01-10T13:21:49.665Z,38.83
2018-01-10T13:24:17.199Z,33.93
2018-01-10T13:26:45.552Z,33.00
2018-01-10T13:29:14.622Z,40.72
2018-01-10T13:31:42.135Z,31.40
2018-01-10T13:34:11.384Z,38.73
2018-01-10T13:36:38.923Z,33.97
2018-01-10T13:39:06.455Z,44.75
2018-01-10T13:41:34.011Z,30.83
2018-01-10T13:44:02.313Z,30.90
2018-01-10T13:46:29.857Z,31.00
2018-01-10T13:48:57.419Z,37.13
2018-01-10T13:51:24.955Z,33.97
2018-01-10T13:53:52.823Z,37.58
2018-01-10T13:56:20.663Z,39.13
2018-01-10T13:58:48.200Z,37.67
2018-01-10T14:01:16.965Z,34.77
2018-01-10T14:03:44.539Z,46.67
2018-01-10T14:06:12.108Z,43.03
2018-01-10T14:08:39.655Z,43.63
2018-01-10T14:11:07.229Z,44.83
2018-01-10T14:13:34.777Z,46.70
2018-01-10T14:16:02.323Z,37.33
2018-01-10T14:18:30.087Z,41.73
2018-01-10T14:20:57.628Z,56.55
2018-01-10T14:23:25.956Z,44.67
2018-01-10T14:25:53.543Z,38.22
2018-01-10T14:28:21.243Z,41.70
2018-01-10T14:30:49.572Z,42.70
2018-01-10T14:33:17.131Z,41.13
2018-01-10T14:35:44.671Z,42.63
2018-01-10T14:38:12.212Z,48.17
2018-01-10T14:40:39.967Z,34.73
2018-01-10T14:43:07.505Z,44.58
2018-01-10T14:45:36.049Z,42.83
2018-01-10T14:48:03.612Z,40.93
2018-01-10T14:50:31.152Z,42.30
2018-01-10T14:52:58.683Z,46.07
2018-01-10T14:55:26.900Z,39.53
2018-01-10T14:57:54.447Z,50.17
2018-01-10T15:00:21.984Z,42.90
2018-01-10T15:02:49.596Z,45.97
2018-01-10T15:05:17.127Z,55.20
2018-01-10T15:07:44.687Z,54.17
2018-01-10T15:10:12.271Z,43.90
2018-01-10T15:12:39.807Z,52.83
2018-01-10T15:15:07.351Z,48.67
2018-01-10T15:17:34.917Z,45.70
2018-01-10T15:20:02.452Z,51.80
2018-01-10T15:22:30.755Z,49.30
2018-01-10T15:24:58.529Z,53.43
2018-01-10T15:27:26.828Z,48.30
2018-01-10T15:29:54.367Z,51.27
2018-01-10T15:32:21.940Z,56.47
2018-01-10T15:34:49.519Z,53.70
2018-01-10T15:37:17.064Z,63.00
2018-01-10T15:39:44.623Z,62.90
2018-01-10T15:42:12.194Z,55.63
2018-01-10T15:44:39.736Z,58.57
2018-01-10T15:47:07.823Z,61.27
2018-01-10T15:49:35.440Z,64.30
2018-01-10T15:52:02.999Z,60.00
2018-01-10T15:54:30.570Z,70.28
2018-01-10T15:56:58.721Z,64.77
2018-01-10T15:59:26.961Z,65.23
2018-01-10T16:09:36.080Z,72.30
2018-01-10T16:12:03.983Z,75.53
2018-01-10T16:14:32.448Z,74.70
2018-01-10T16:17:00.023Z,85.30
2018-01-10T16:19:27.594Z,86.90
2018-01-10T16:21:55.156Z,106.13
2018-01-10T16:24:23.801Z,89.03
2018-01-10T16:26:51.553Z,92.30
2018-01-10T16:29:27.392Z,83.65
2018-01-10T16:31:55.100Z,89.33
2018-01-10T16:34:22.844Z,94.37
2018-01-10T16:36:50.638Z,108.33
2018-01-10T16:39:19.021Z,101.23
2018-01-10T16:41:46.571Z,103.70
2018-01-10T16:44:15.644Z,109.97
2018-01-10T16:46:43.214Z,116.20
2018-01-10T16:49:11.577Z,122.87
2018-01-10T16:51:39.160Z,122.90
2018-01-10T16:54:06.696Z,112.80
2018-01-10T16:56:35.008Z,108.37
2018-01-10T16:59:03.403Z,120.43
2018-01-10T17:01:30.944Z,157.12
2018-01-10T17:03:58.508Z,140.73
2018-01-10T17:06:26.696Z,141.03
2018-01-10T17:08:54.291Z,166.93
2018-01-10T17:11:21.841Z,138.05
2018-01-10T17:13:49.419Z,134.47
2018-01-10T17:16:17.748Z,132.23
2018-01-10T17:18:45.295Z,119.33
2018-01-10T17:21:13.867Z,279.73
2018-01-10T17:23:44.112Z,494.07
2018-01-10T17:26:11.680Z,548.13
2018-01-10T17:28:41.228Z,488.53
2018-01-10T17:31:12.611Z,527.03
2018-01-10T17:33:41.894Z,543.10
2018-01-10T17:36:09.540Z,438.85
2018-01-10T17:38:37.116Z,485.63
2018-01-10T17:41:04.680Z,539.67
2018-01-10T17:43:33.932Z,451.60
2018-01-10T17:46:03.726Z,388.00
2018-01-10T17:48:31.311Z,438.53
2018-01-10T17:51:03.975Z,508.90
2018-01-10T17:53:31.536Z,487.87
2018-01-10T17:56:00.080Z,425.43
2018-01-10T17:58:27.663Z,509.20
2018-01-10T18:00:55.277Z,395.20
2018-01-10T18:03:22.828Z,540.37
2018-01-10T18:05:50.418Z,431.00
2018-01-10T18:08:18.080Z,430.70
2018-01-10T18:10:45.636Z,359.10
2018-01-10T18:13:24.689Z,400.12
2018-01-10T18:20:24.192Z,545.40
2018-01-10T18:22:52.612Z,445.93
2018-01-10T18:25:20.206Z,455.02
2018-01-10T18:27:47.785Z,519.07
2018-01-10T18:30:17.056Z,329.20
2018-01-10T18:35:41.315Z,402.90
2018-01-10T18:38:08.903Z,359.43
2018-01-10T18:40:37.711Z,260.43
2018-01-10T18:43:05.277Z,351.30
2018-01-10T18:45:32.850Z,350.50
2018-01-10T18:48:04.956Z,349.70
2018-01-10T18:50:32.718Z,302.23
2018-01-10T18:53:00.736Z,296.87
2018-01-10T18:55:28.490Z,360.03
2018-01-10T18:57:57.133Z,328.80
2018-01-10T19:00:24.848Z,382.55
2018-01-10T19:02:52.460Z,364.77
2018-01-10T19:05:19.999Z,307.60
2018-01-10T19:07:48.403Z,410.23
2018-01-10T19:10:16.631Z,335.50
2018-01-10T19:12:44.196Z,277.43
2018-01-10T19:15:11.991Z,313.70
2018-01-10T19:17:39.550Z,319.17
2018-01-10T19:20:07.095Z,285.13
2018-01-10T19:22:50.215Z,323.15
2018-01-10T19:25:21.513Z,346.67
2018-01-10T19:27:49.241Z,360.67
2018-01-10T19:30:16.889Z,369.27
2018-01-10T19:32:44.506Z,323.93
2018-01-10T19:35:12.390Z,328.13
2018-01-10T19:37:39.981Z,148.27
2018-01-10T19:40:08.299Z,519.60
2018-01-10T19:42:36.652Z,379.13
2018-01-10T19:45:04.199Z,305.67
2018-01-10T19:47:32.528Z,602.53
2018-01-10T19:50:00.161Z,535.47
2018-01-10T19:52:27.715Z,340.27
2018-01-10T19:54:55.288Z,302.73
2018-01-10T19:57:23.324Z,368.43
2018-01-10T19:59:51.828Z,487.43
2018-01-10T20:02:19.469Z,329.70
2018-01-10T20:04:50.556Z,553.77
2018-01-10T20:07:18.207Z,586.03
2018-01-10T20:09:46.887Z,386.10
2018-01-10T20:12:32.828Z,444.69
2018-01-10T20:17:31.495Z,423.27
2018-01-10T20:19:59.194Z,303.00
2018-01-10T20:22:26.901Z,438.37
2018-01-10T20:24:54.507Z,459.57
2018-01-10T20:27:22.287Z,388.27
2018-01-10T20:29:49.903Z,358.47
2018-01-10T20:32:17.608Z,483.83
2018-01-10T20:34:45.387Z,472.43
2018-01-10T20:37:25.960Z,247.65
2018-01-10T20:42:50.255Z,249.57
2018-01-10T20:45:17.877Z,356.80
2018-01-10T20:47:46.705Z,362.73
2018-01-10T20:50:26.023Z,404.87
2018-01-10T20:58:38.684Z,247.23
2018-01-10T21:01:06.253Z,327.77
2018-01-10T21:03:34.051Z,300.60
2018-01-10T21:06:02.318Z,313.15
2018-01-10T21:08:30.936Z,507.57
2018-01-10T21:10:58.504Z,459.17
2018-01-10T21:13:26.181Z,476.20
2018-01-10T21:15:53.769Z,470.53
2018-01-10T21:18:21.362Z,425.50
2018-01-10T21:20:48.988Z,603.50
2018-01-10T21:23:16.916Z,564.72
2018-01-10T21:25:44.523Z,459.63
2018-01-10T21:28:12.382Z,447.10
2018-01-10T21:30:40.047Z,505.43
2018-01-10T21:33:08.514Z,341.53
2018-01-10T21:35:36.230Z,439.33
2018-01-10T21:38:03.937Z,420.90
2018-01-10T21:40:31.735Z,208.60
2018-01-10T21:42:59.479Z,227.03
2018-01-10T21:45:27.149Z,230.17
2018-01-10T21:47:54.955Z,279.77
2018-01-10T21:50:22.725Z,451.70
2018-01-10T21:52:50.442Z,256.77
2018-01-10T21:55:18.820Z,234.73
2018-01-10T21:57:46.460Z,330.20
2018-01-10T22:00:16.032Z,294.10
2018-01-10T22:02:43.691Z,329.63
2018-01-10T22:05:11.334Z,285.70
2018-01-10T22:07:39.541Z,299.60
2018-01-10T22:10:07.401Z,259.23
2018-01-10T22:12:35.404Z,250.10
2018-01-10T22:15:02.982Z,329.53
2018-01-10T22:17:30.833Z,319.65
2018-01-10T22:19:58.500Z,336.62
2018-01-10T22:22:28.131Z,277.23
2018-01-10T22:24:58.389Z,216.67
2018-01-10T22:27:26.027Z,197.57
2018-01-10T22:29:54.463Z,223.93
2018-01-10T22:32:22.049Z,274.27
2018-01-10T22:34:51.089Z,312.75
2018-01-10T22:37:19.245Z,243.05
2018-01-10T22:39:46.969Z,206.83
2018-01-10T22:42:25.867Z,318.17
2018-01-10T22:48:52.658Z,217.67
2018-01-10T22:51:20.497Z,328.58
2018-01-10T22:53:48.829Z,136.33
2018-01-10T22:56:17.485Z,235.30
2018-01-10T22:58:45.185Z,155.80
2018-01-10T23:01:14.431Z,197.83
2018-01-10T23:03:42.130Z,232.00
2018-01-10T23:06:10.597Z,120.30
2018-01-10T23:08:39.340Z,308.10
2018-01-10T23:11:06.972Z,324.37
2018-01-10T23:13:34.519Z,202.85
2018-01-10T23:16:02.132Z,300.40
2018-01-10T23:18:29.912Z,167.35
2018-01-10T23:20:57.472Z,213.83
2018-01-10T23:23:25.039Z,251.77
2018-01-10T23:25:52.620Z,303.27
2018-01-10T23:28:20.951Z,231.32
2018-01-10T23:30:48.496Z,281.95
2018-01-10T23:33:16.552Z,246.95
2018-01-10T23:35:44.083Z,212.87
2018-01-10T23:38:12.394Z,192.13
2018-01-10T23:40:40.695Z,174.23
2018-01-10T23:43:08.244Z,195.30
2018-01-10T23:45:35.783Z,139.80
2018-01-10T23:48:03.356Z,121.17
2018-01-10T23:50:30.920Z,74.53
2018-01-10T23:52:58.471Z,106.90
2018-01-10T23:55:26.040Z,104.07
2018-01-10T23:57:54.362Z,72.60
